createdAt,value
2017-09-25T00:01:43.402Z,9.90
2017-09-25T00:04:11.218Z,9.90
2017-09-25T00:06:38.796Z,9.90
2017-09-25T00:09:06.414Z,9.80
2017-09-25T00:11:33.979Z,9.80
2017-09-25T00:14:01.582Z,9.80
2017-09-25T00:16:29.142Z,9.90
2017-09-25T00:18:57.123Z,9.80
2017-09-25T00:21:24.704Z,9.70
2017-09-25T00:23:53.406Z,9.70
2017-09-25T00:26:21.838Z,9.70
2017-09-25T00:28:49.496Z,9.70
2017-09-25T00:31:17.080Z,9.70
2017-09-25T00:33:44.657Z,9.70
2017-09-25T00:36:12.514Z,9.70
2017-09-25T00:38:40.237Z,9.70
2017-09-25T00:41:07.823Z,9.80
2017-09-25T00:43:35.417Z,9.70
2017-09-25T00:46:03.235Z,9.70
2017-09-25T00:48:30.847Z,9.60
2017-09-25T00:50:59.193Z,9.60
2017-09-25T00:53:38.398Z,9.60
2017-09-25T00:56:05.980Z,9.50
2017-09-25T00:58:33.569Z,9.50
2017-09-25T01:01:13.783Z,9.50
2017-09-25T01:03:53.102Z,9.40
2017-09-25T01:06:26.305Z,9.40
2017-09-25T01:08:54.166Z,9.50
2017-09-25T01:11:21.756Z,9.50
2017-09-25T01:13:49.425Z,9.60
2017-09-25T01:16:17.381Z,9.60
2017-09-25T01:18:44.986Z,9.60
2017-09-25T01:21:12.580Z,9.60
2017-09-25T01:23:40.168Z,9.60
2017-09-25T01:26:07.750Z,9.50
2017-09-25T01:28:35.673Z,9.40
2017-09-25T01:31:03.248Z,9.30
2017-09-25T01:33:30.816Z,9.30
2017-09-25T01:35:58.538Z,9.30
2017-09-25T01:38:26.561Z,9.40
2017-09-25T01:40:54.507Z,9.40
2017-09-25T01:43:22.095Z,9.50
2017-09-25T01:45:50.452Z,9.50
2017-09-25T01:48:18.059Z,9.50
2017-09-25T01:50:45.642Z,9.50
2017-09-25T01:53:13.500Z,9.50
2017-09-25T01:55:41.102Z,9.40
2017-09-25T01:58:09.242Z,9.30
2017-09-25T02:00:36.858Z,9.30
2017-09-25T02:03:05.224Z,9.30
2017-09-25T02:05:33.591Z,9.30
2017-09-25T02:08:01.170Z,9.30
2017-09-25T02:10:28.768Z,9.30
2017-09-25T02:12:56.375Z,9.30
2017-09-25T02:15:23.966Z,9.30
2017-09-25T02:17:51.582Z,9.20
2017-09-25T02:20:19.205Z,9.20
2017-09-25T02:22:46.778Z,9.20
2017-09-25T02:25:15.129Z,9.20
2017-09-25T02:27:42.723Z,9.10
2017-09-25T02:30:10.302Z,9.10
2017-09-25T02:32:37.895Z,9.20
2017-09-25T02:35:05.506Z,9.20
2017-09-25T02:37:33.166Z,9.20
2017-09-25T02:40:00.755Z,9.30
2017-09-25T02:42:28.696Z,9.40
2017-09-25T02:44:56.265Z,9.30
2017-09-25T02:47:23.855Z,9.30
2017-09-25T02:49:51.513Z,9.20
2017-09-25T02:52:19.934Z,9.10
2017-09-25T02:54:47.819Z,9.10
2017-09-25T02:57:15.401Z,9.00
2017-09-25T02:59:42.990Z,8.90
2017-09-25T03:02:10.615Z,8.90
2017-09-25T03:04:38.202Z,8.90
2017-09-25T03:07:06.142Z,8.90
2017-09-25T03:09:33.792Z,9.00
2017-09-25T03:12:01.374Z,9.10
2017-09-25T03:14:28.984Z,9.00
2017-09-25T03:16:56.600Z,8.90
2017-09-25T03:19:24.989Z,8.80
2017-09-25T03:21:53.553Z,8.70
2017-09-25T03:24:22.178Z,8.70
2017-09-25T03:26:50.068Z,8.70
2017-09-25T03:29:17.657Z,8.70
2017-09-25T03:31:45.252Z,8.60
2017-09-25T03:34:12.840Z,8.60
2017-09-25T03:36:40.438Z,8.50
2017-09-25T03:39:08.014Z,8.50
2017-09-25T03:41:36.699Z,8.50
2017-09-25T03:44:05.559Z,8.50
2017-09-25T03:46:33.151Z,8.40
2017-09-25T03:49:01.513Z,8.50
2017-09-25T03:51:29.102Z,8.50
2017-09-25T03:53:56.701Z,8.50
2017-09-25T03:56:24.286Z,8.50
2017-09-25T03:58:52.167Z,8.50
2017-09-25T04:01:20.501Z,8.70
2017-09-25T04:03:48.090Z,8.70
2017-09-25T04:06:15.722Z,8.60
2017-09-25T04:08:43.338Z,8.50
2017-09-25T04:11:11.006Z,8.50
2017-09-25T04:13:38.605Z,8.40
2017-09-25T04:16:06.478Z,8.40
2017-09-25T04:18:34.054Z,8.40
2017-09-25T04:21:01.626Z,8.40
2017-09-25T04:23:29.249Z,8.40
2017-09-25T04:25:59.314Z,8.30
2017-09-25T04:28:28.591Z,8.30
2017-09-25T04:31:00.028Z,8.40
2017-09-25T04:33:28.443Z,8.40
2017-09-25T04:35:58.056Z,8.20
2017-09-25T04:38:25.954Z,8.20
2017-09-25T04:40:53.524Z,8.20
2017-09-25T04:43:21.099Z,8.10
2017-09-25T04:45:48.762Z,8.10
2017-09-25T04:48:16.380Z,8.10
2017-09-25T04:50:43.983Z,8.20
2017-09-25T04:53:11.664Z,8.20
2017-09-25T04:55:39.542Z,8.20
2017-09-25T04:58:08.065Z,8.10
2017-09-25T05:00:35.686Z,8.10
2017-09-25T05:03:04.050Z,7.90
2017-09-25T05:05:31.642Z,7.90
2017-09-25T05:08:00.026Z,8.00
2017-09-25T05:10:27.617Z,7.90
2017-09-25T05:12:55.595Z,8.10
2017-09-25T05:15:23.385Z,8.30
2017-09-25T05:17:51.015Z,8.20
2017-09-25T05:20:18.614Z,8.10
2017-09-25T05:22:46.958Z,7.90
2017-09-25T05:25:14.650Z,7.90
2017-09-25T05:27:43.021Z,7.80
2017-09-25T05:30:11.430Z,7.80
2017-09-25T05:32:39.002Z,8.00
2017-09-25T05:35:06.588Z,8.10
2017-09-25T05:37:34.383Z,8.20
2017-09-25T05:40:01.993Z,8.20
2017-09-25T05:42:29.597Z,8.20
2017-09-25T05:44:57.200Z,8.30
2017-09-25T05:47:25.115Z,8.30
2017-09-25T05:49:52.758Z,8.40
2017-09-25T05:52:20.347Z,8.50
2017-09-25T05:54:47.942Z,8.60
2017-09-25T05:57:15.748Z,8.60
2017-09-25T05:59:43.613Z,8.70
2017-09-25T06:02:11.234Z,8.70
2017-09-25T06:04:39.098Z,8.80
2017-09-25T06:07:06.695Z,9.00
2017-09-25T06:09:35.423Z,9.00
2017-09-25T06:12:02.989Z,9.20
2017-09-25T06:14:31.355Z,9.50
2017-09-25T06:16:58.934Z,9.50
2017-09-25T06:19:27.297Z,10.60
2017-09-25T06:21:55.228Z,10.60
2017-09-25T06:24:22.833Z,11.80
2017-09-25T06:26:51.181Z,14.10
2017-09-25T06:29:18.799Z,14.10
2017-09-25T06:31:46.402Z,14.90
2017-09-25T06:34:14.026Z,15.50
2017-09-25T06:36:41.606Z,16.20
2017-09-25T06:39:09.586Z,16.60
2017-09-25T06:41:37.368Z,17.40
2017-09-25T06:44:05.750Z,18.00
2017-09-25T06:46:33.366Z,17.90
2017-09-25T06:49:01.190Z,18.70
2017-09-25T06:51:29.599Z,19.90
2017-09-25T06:53:57.261Z,19.90
2017-09-25T06:56:25.137Z,19.90
2017-09-25T06:58:53.006Z,20.20
2017-09-25T07:01:20.625Z,20.60
2017-09-25T07:03:48.261Z,21.10
2017-09-25T07:06:15.842Z,21.90
2017-09-25T07:08:44.209Z,22.50
2017-09-25T07:11:11.960Z,22.50
2017-09-25T07:13:39.924Z,23.00
2017-09-25T07:16:08.629Z,23.50
2017-09-25T07:18:36.222Z,23.60
2017-09-25T07:21:03.826Z,24.10
2017-09-25T07:23:31.400Z,24.80
2017-09-25T07:25:59.006Z,25.00
2017-09-25T07:28:26.606Z,25.60
2017-09-25T07:30:54.476Z,24.90
2017-09-25T07:33:22.071Z,25.50
2017-09-25T07:35:50.443Z,26.70
2017-09-25T07:38:18.849Z,27.10
2017-09-25T07:40:46.439Z,27.00
2017-09-25T07:43:14.059Z,27.30
2017-09-25T07:45:41.729Z,27.40
2017-09-25T07:48:09.576Z,27.80
2017-09-25T07:50:37.167Z,27.60
2017-09-25T07:53:04.746Z,27.80
2017-09-25T07:55:32.735Z,28.10
2017-09-25T07:58:00.288Z,28.60
2017-09-25T08:00:28.857Z,29.00
2017-09-25T08:02:56.469Z,29.50
2017-09-25T08:05:24.391Z,29.70
2017-09-25T08:07:52.007Z,29.50
2017-09-25T08:10:19.605Z,29.40
2017-09-25T08:12:47.491Z,30.40
2017-09-25T08:15:15.482Z,30.90
2017-09-25T08:17:44.432Z,31.60
2017-09-25T08:20:12.056Z,31.60
2017-09-25T08:22:39.634Z,32.00
2017-09-25T08:25:08.036Z,32.60
2017-09-25T08:27:35.624Z,33.00
2017-09-25T08:30:04.185Z,32.30
2017-09-25T08:32:31.776Z,32.80
2017-09-25T08:34:59.401Z,32.90
2017-09-25T08:37:27.282Z,32.70
2017-09-25T08:39:54.899Z,32.90
2017-09-25T08:42:22.521Z,33.50
2017-09-25T08:44:50.892Z,33.70
2017-09-25T08:47:18.839Z,33.70
2017-09-25T08:49:46.418Z,33.50
2017-09-25T08:52:14.030Z,34.50
2017-09-25T08:54:41.722Z,34.30
2017-09-25T08:57:09.314Z,34.40
2017-09-25T08:59:37.686Z,34.60
2017-09-25T09:02:06.130Z,35.00
2017-09-25T09:04:34.311Z,35.10
2017-09-25T09:07:01.928Z,35.40
2017-09-25T09:09:29.530Z,35.20
2017-09-25T09:11:57.161Z,35.70
2017-09-25T09:14:24.755Z,35.60
2017-09-25T09:16:52.384Z,36.00
2017-09-25T09:19:19.974Z,36.10
2017-09-25T09:21:47.579Z,36.10
2017-09-25T09:24:15.199Z,36.70
2017-09-25T09:26:42.814Z,36.10
2017-09-25T09:29:10.816Z,36.70
2017-09-25T09:31:38.408Z,37.00
2017-09-25T09:34:06.011Z,38.30
2017-09-25T09:36:33.595Z,38.60
2017-09-25T09:39:01.196Z,39.10
2017-09-25T09:41:29.374Z,38.90
2017-09-25T09:44:03.253Z,38.90
2017-09-25T09:46:30.967Z,38.10
2017-09-25T09:48:58.566Z,38.40
2017-09-25T09:51:28.474Z,37.50
2017-09-25T09:53:56.165Z,38.30
2017-09-25T09:56:24.728Z,37.80
2017-09-25T09:58:52.478Z,37.80
2017-09-25T10:01:20.109Z,37.10
2017-09-25T10:03:47.703Z,37.20
2017-09-25T10:06:15.272Z,37.90
2017-09-25T10:08:42.867Z,39.00
2017-09-25T10:11:10.790Z,39.10
2017-09-25T10:13:38.390Z,38.90
2017-09-25T10:16:06.730Z,39.40
2017-09-25T10:18:34.423Z,39.40
2017-09-25T10:21:02.905Z,39.10
2017-09-25T10:23:31.653Z,39.20
2017-09-25T10:25:59.229Z,39.20
2017-09-25T10:28:27.187Z,39.10
2017-09-25T10:30:54.822Z,39.00
2017-09-25T10:33:22.421Z,37.90
2017-09-25T10:35:50.051Z,38.40
2017-09-25T10:38:17.637Z,37.90
2017-09-25T10:40:45.766Z,37.70
2017-09-25T10:43:13.601Z,37.80
2017-09-25T10:45:42.359Z,37.90
2017-09-25T10:48:11.229Z,37.90
2017-09-25T10:50:38.878Z,38.20
2017-09-25T10:53:06.484Z,37.00
2017-09-25T10:55:34.111Z,35.30
2017-09-25T10:58:02.032Z,33.60
2017-09-25T11:00:29.639Z,34.60
2017-09-25T11:02:57.252Z,34.10
2017-09-25T11:05:25.812Z,33.70
2017-09-25T11:07:53.673Z,33.50
2017-09-25T11:10:21.283Z,33.80
2017-09-25T11:12:48.867Z,34.10
2017-09-25T11:15:16.749Z,34.30
2017-09-25T11:17:44.339Z,35.30
2017-09-25T11:20:11.939Z,34.50
2017-09-25T11:22:39.632Z,34.20
2017-09-25T11:25:07.251Z,35.60
2017-09-25T11:27:35.301Z,36.70
2017-09-25T11:30:02.895Z,36.60
2017-09-25T11:32:30.497Z,34.40
2017-09-25T11:34:58.120Z,34.20
2017-09-25T11:37:25.711Z,34.70
2017-09-25T11:39:53.875Z,34.80
2017-09-25T11:42:21.498Z,34.20
2017-09-25T11:44:49.375Z,34.10
2017-09-25T11:47:17.011Z,34.40
2017-09-25T11:49:44.598Z,32.50
2017-09-25T11:52:12.230Z,32.60
2017-09-25T11:54:39.819Z,32.90
2017-09-25T11:57:07.443Z,33.40
2017-09-25T11:59:35.033Z,33.40
2017-09-25T12:02:03.096Z,34.10
2017-09-25T12:04:30.698Z,33.80
2017-09-25T12:06:58.520Z,33.60
2017-09-25T12:09:26.254Z,33.00
2017-09-25T12:11:54.614Z,33.70
2017-09-25T12:14:22.224Z,33.70
2017-09-25T12:16:49.824Z,34.30
2017-09-25T12:19:17.786Z,35.30
2017-09-25T12:21:45.363Z,34.00
2017-09-25T12:24:12.973Z,34.20
2017-09-25T12:26:40.580Z,34.20
2017-09-25T12:29:08.147Z,34.90
2017-09-25T12:31:35.798Z,35.00
2017-09-25T12:34:03.419Z,32.70
2017-09-25T12:36:31.409Z,30.30
2017-09-25T12:38:59.016Z,29.10
2017-09-25T12:41:27.376Z,31.30
2017-09-25T12:43:55.770Z,32.10
2017-09-25T12:46:24.128Z,33.00
2017-09-25T12:48:52.502Z,32.90
2017-09-25T12:51:20.083Z,32.90
2017-09-25T12:53:51.139Z,31.40
2017-09-25T12:56:18.766Z,31.40
2017-09-25T12:58:46.363Z,30.50
2017-09-25T13:01:14.002Z,29.80
2017-09-25T13:03:42.373Z,30.10
2017-09-25T13:06:09.982Z,30.10
2017-09-25T13:08:37.612Z,30.60
2017-09-25T13:11:05.778Z,30.20
2017-09-25T13:13:34.146Z,30.00
2017-09-25T13:16:02.518Z,30.90
2017-09-25T13:18:30.129Z,30.90
2017-09-25T13:20:57.727Z,31.30
2017-09-25T13:23:25.538Z,31.60
2017-09-25T13:25:53.157Z,32.40
2017-09-25T13:28:21.138Z,32.80
2017-09-25T13:30:49.538Z,33.60
2017-09-25T13:33:17.136Z,33.60
2017-09-25T13:35:44.784Z,33.70
2017-09-25T13:38:12.402Z,32.90
2017-09-25T13:40:40.785Z,31.10
2017-09-25T13:43:09.155Z,30.40
2017-09-25T13:45:37.870Z,30.50
2017-09-25T13:48:05.480Z,30.50
2017-09-25T13:50:33.121Z,30.30
2017-09-25T13:53:00.751Z,29.70
2017-09-25T13:55:28.342Z,28.90
2017-09-25T13:57:55.925Z,28.50
2017-09-25T14:02:56.776Z,27.90
2017-09-25T14:05:24.378Z,27.20
2017-09-25T14:07:51.998Z,26.80
2017-09-25T14:10:19.632Z,26.10
2017-09-25T14:12:47.644Z,25.60
2017-09-25T14:15:16.071Z,25.30
2017-09-25T14:17:43.844Z,25.30
2017-09-25T14:20:12.544Z,25.50
2017-09-25T14:22:40.170Z,25.50
2017-09-25T14:25:07.859Z,25.00
2017-09-25T14:27:35.482Z,25.00
2017-09-25T14:30:03.384Z,25.00
2017-09-25T14:32:30.986Z,24.80
2017-09-25T14:34:59.347Z,24.70
2017-09-25T14:37:27.126Z,24.60
2017-09-25T14:39:55.911Z,24.40
2017-09-25T14:42:23.526Z,24.40
2017-09-25T14:44:51.158Z,24.40
2017-09-25T14:47:19.164Z,24.30
2017-09-25T14:49:47.575Z,24.10
2017-09-25T14:52:15.171Z,24.00
2017-09-25T14:54:42.798Z,23.90
2017-09-25T14:57:11.170Z,23.60
2017-09-25T14:59:39.931Z,23.60
2017-09-25T15:02:07.559Z,23.60
2017-09-25T15:04:35.139Z,23.60
2017-09-25T15:07:02.915Z,23.40
2017-09-25T15:09:30.531Z,23.50
2017-09-25T15:11:58.464Z,23.50
2017-09-25T15:14:26.081Z,23.40
2017-09-25T15:16:53.702Z,23.30
2017-09-25T15:19:22.092Z,22.80
2017-09-25T15:21:50.455Z,22.80
2017-09-25T15:24:18.839Z,22.70
2017-09-25T15:26:47.233Z,22.50
2017-09-25T15:29:15.222Z,22.50
2017-09-25T15:31:42.964Z,22.40
2017-09-25T15:34:10.633Z,22.40
2017-09-25T15:36:38.306Z,22.20
2017-09-25T15:39:05.896Z,22.00
2017-09-25T15:41:33.518Z,21.90
2017-09-25T15:44:01.098Z,21.80
2017-09-25T15:46:29.038Z,21.70
2017-09-25T15:48:57.125Z,21.50
2017-09-25T15:51:24.842Z,21.40
2017-09-25T15:53:52.471Z,21.10
2017-09-25T15:56:20.068Z,21.00
2017-09-25T15:58:48.853Z,20.60
2017-09-25T16:01:16.453Z,20.60
2017-09-25T16:03:44.050Z,20.50
2017-09-25T16:06:11.671Z,20.40
2017-09-25T16:08:42.237Z,20.30
2017-09-25T16:11:09.872Z,20.20
2017-09-25T16:13:37.477Z,20.10
2017-09-25T16:16:05.350Z,20.00
2017-09-25T16:18:34.398Z,19.80
2017-09-25T16:21:04.481Z,19.80
2017-09-25T16:23:33.388Z,19.50
2017-09-25T16:26:01.409Z,19.50
2017-09-25T16:28:28.992Z,19.40
2017-09-25T16:30:57.362Z,19.00
2017-09-25T16:33:25.287Z,19.00
2017-09-25T16:35:52.890Z,18.90
2017-09-25T16:38:21.276Z,18.70
2017-09-25T16:40:49.691Z,18.60
2017-09-25T16:43:17.310Z,18.50
2017-09-25T16:45:45.956Z,18.30
2017-09-25T16:48:13.619Z,18.30
2017-09-25T16:50:41.227Z,18.20
2017-09-25T16:53:09.610Z,18.00
2017-09-25T16:55:37.977Z,17.90
2017-09-25T16:58:06.356Z,17.80
2017-09-25T17:00:34.731Z,17.70
2017-09-25T17:03:03.138Z,17.50
2017-09-25T17:05:30.741Z,17.40
2017-09-25T17:08:00.161Z,17.20
2017-09-25T17:10:27.734Z,17.30
2017-09-25T17:12:56.107Z,16.90
2017-09-25T17:15:24.486Z,16.70
2017-09-25T17:17:52.870Z,16.60
2017-09-25T17:20:21.516Z,16.50
2017-09-25T17:22:49.889Z,16.40
2017-09-25T17:25:17.494Z,16.30
2017-09-25T17:27:45.872Z,16.20
2017-09-25T17:30:14.216Z,16.00
2017-09-25T17:32:41.830Z,16.00
2017-09-25T17:35:09.426Z,15.90
2017-09-25T17:37:37.330Z,15.90
2017-09-25T17:40:04.947Z,15.80
2017-09-25T17:42:32.799Z,15.70
2017-09-25T17:45:00.516Z,15.60
2017-09-25T17:47:28.188Z,15.50
2017-09-25T17:49:56.854Z,15.40
2017-09-25T17:52:25.289Z,15.40
2017-09-25T17:54:52.893Z,15.30
2017-09-25T17:57:20.536Z,15.40
2017-09-25T17:59:48.184Z,15.40
2017-09-25T18:02:16.162Z,15.30
2017-09-25T18:04:43.765Z,15.40
2017-09-25T18:07:11.756Z,15.40
2017-09-25T18:09:39.462Z,15.40
2017-09-25T18:12:07.088Z,15.40
2017-09-25T18:14:34.784Z,15.40
2017-09-25T18:17:02.412Z,15.40
2017-09-25T18:19:30.348Z,15.50
2017-09-25T18:21:58.874Z,15.40
2017-09-25T18:24:26.603Z,15.40
2017-09-25T18:26:54.310Z,15.40
2017-09-25T18:29:21.902Z,15.30
2017-09-25T18:31:49.553Z,15.30
2017-09-25T18:34:17.972Z,15.20
2017-09-25T18:36:45.913Z,15.20
2017-09-25T18:39:14.651Z,15.10
2017-09-25T18:41:42.413Z,15.10
2017-09-25T18:44:10.086Z,15.00
2017-09-25T18:46:37.818Z,14.90
2017-09-25T18:49:05.606Z,14.90
2017-09-25T18:51:33.407Z,14.80
2017-09-25T18:54:01.458Z,14.80
2017-09-25T18:56:29.134Z,14.70
2017-09-25T18:58:56.985Z,14.60
2017-09-25T19:01:24.768Z,14.50
2017-09-25T19:03:52.372Z,14.40
2017-09-25T19:06:20.085Z,14.30
2017-09-25T19:08:47.786Z,14.10
2017-09-25T19:11:15.887Z,14.00
2017-09-25T19:13:43.571Z,14.00
2017-09-25T19:16:11.228Z,13.90
2017-09-25T19:18:40.558Z,13.80
2017-09-25T19:21:08.248Z,13.60
2017-09-25T19:23:36.284Z,13.60
2017-09-25T19:26:04.133Z,13.50
2017-09-25T19:28:31.751Z,13.40
2017-09-25T19:30:59.408Z,13.30
2017-09-25T19:33:27.045Z,13.20
2017-09-25T19:35:55.833Z,13.00
2017-09-25T19:38:24.335Z,12.90
2017-09-25T19:40:52.247Z,12.90
2017-09-25T19:43:19.997Z,12.90
2017-09-25T19:45:47.752Z,12.90
2017-09-25T19:48:17.272Z,12.80
2017-09-25T19:53:42.701Z,12.80
2017-09-25T19:56:12.127Z,12.70
2017-09-25T19:58:42.407Z,12.60
2017-09-25T20:01:10.853Z,12.60
2017-09-25T20:03:38.623Z,12.50
2017-09-25T20:06:07.131Z,12.50
2017-09-25T20:08:34.779Z,12.50
2017-09-25T20:11:04.244Z,12.50
2017-09-25T20:13:31.839Z,12.50
2017-09-25T20:15:59.991Z,12.50
2017-09-25T20:18:28.673Z,12.60
2017-09-25T20:20:57.055Z,12.60
2017-09-25T20:23:25.540Z,12.60
2017-09-25T20:25:53.218Z,12.50
2017-09-25T20:28:20.863Z,12.60
2017-09-25T20:30:49.546Z,12.50
2017-09-25T20:33:17.920Z,12.50
2017-09-25T20:35:45.563Z,12.40
2017-09-25T20:38:13.241Z,12.40
2017-09-25T20:40:51.560Z,12.30
2017-09-25T20:46:22.134Z,12.30
2017-09-25T20:48:49.815Z,12.20
2017-09-25T20:51:18.143Z,12.20
2017-09-25T20:53:46.629Z,12.00
2017-09-25T20:56:15.017Z,11.90
2017-09-25T20:58:43.044Z,11.90
2017-09-25T21:01:10.647Z,12.00
2017-09-25T21:03:38.394Z,11.90
2017-09-25T21:06:06.774Z,11.80
2017-09-25T21:08:35.179Z,11.80
2017-09-25T21:11:03.191Z,11.80
2017-09-25T21:13:30.804Z,11.80
2017-09-25T21:15:59.179Z,11.80
2017-09-25T21:18:26.840Z,11.70
2017-09-25T21:20:54.443Z,11.70
2017-09-25T21:23:22.321Z,11.70
2017-09-25T21:28:52.974Z,11.70
2017-09-25T21:31:20.587Z,11.60
2017-09-25T21:33:48.194Z,11.60
2017-09-25T21:36:16.664Z,11.50
2017-09-25T21:38:44.277Z,11.50
2017-09-25T21:41:12.761Z,11.40
2017-09-25T21:43:40.375Z,11.30
2017-09-25T21:46:08.287Z,11.30
2017-09-25T21:48:36.009Z,11.20
2017-09-25T21:51:03.663Z,11.20
2017-09-25T21:53:31.316Z,11.10
2017-09-25T21:55:58.935Z,11.00
2017-09-25T21:58:27.630Z,11.00
2017-09-25T22:00:55.237Z,10.90
2017-09-25T22:03:23.280Z,10.90
2017-09-25T22:05:50.871Z,10.80
2017-09-25T22:08:18.475Z,10.80
2017-09-25T22:10:46.267Z,10.80
2017-09-25T22:13:13.954Z,10.90
2017-09-25T22:15:42.106Z,10.90
2017-09-25T22:18:09.779Z,11.00
2017-09-25T22:20:37.691Z,11.10
2017-09-25T22:23:05.304Z,11.10
2017-09-25T22:25:35.098Z,11.20
2017-09-25T22:28:02.928Z,11.30
2017-09-25T22:30:31.307Z,11.30
2017-09-25T22:32:58.960Z,11.30
2017-09-25T22:35:27.331Z,11.30
2017-09-25T22:37:55.751Z,11.20
2017-09-25T22:40:23.387Z,11.20
2017-09-25T22:42:56.392Z,11.20
2017-09-25T22:45:24.467Z,11.20
2017-09-25T22:47:52.098Z,11.20
2017-09-25T22:50:20.488Z,11.00
2017-09-25T22:52:48.110Z,11.00
2017-09-25T22:55:16.174Z,11.00
2017-09-25T22:57:43.934Z,11.00
2017-09-25T23:00:11.509Z,10.90
2017-09-25T23:02:39.159Z,10.90
2017-09-25T23:08:10.740Z,10.70
2017-09-25T23:10:38.330Z,10.60
2017-09-25T23:13:06.954Z,10.60
2017-09-25T23:15:34.835Z,10.50
2017-09-25T23:18:02.473Z,10.50
2017-09-25T23:20:30.093Z,10.40
2017-09-25T23:22:58.435Z,10.30
2017-09-25T23:25:27.419Z,10.30
2017-09-25T23:27:55.002Z,10.30
2017-09-25T23:30:25.041Z,10.20
2017-09-25T23:32:53.422Z,10.10
2017-09-25T23:35:21.770Z,10.10
2017-09-25T23:37:49.373Z,10.10
2017-09-25T23:40:16.980Z,10.10
2017-09-25T23:42:44.935Z,10.00
2017-09-25T23:45:12.653Z,10.00
2017-09-25T23:47:40.996Z,9.90
2017-09-25T23:50:08.613Z,9.90
2017-09-25T23:52:36.187Z,9.80
2017-09-25T23:55:03.821Z,9.80
2017-09-25T23:57:31.403Z,9.70
2017-09-25T23:59:59.247Z,9.70
